sensor_id;sensor_type;location;lat;lon;timestamp;P1;durP1;ratioP1;P2;durP2;ratioP2
82182;SDS011;71763;52.220;13.000;2023-08-08T00:00:01;0.00;;;0.00;;
82182;SDS011;71763;52.220;13.000;2023-08-08T00:02:28;0.00;;;0.00;;
82182;SDS011;71763;52.220;13.000;2023-08-08T00:04:53;0.08;;;0.00;;
82182;SDS011;71763;52.220;13.000;2023-08-08T00:07:19;0.40;;;0.00;;
82182;SDS011;71763;52.220;13.000;2023-08-08T00:09:44;0.08;;;0.08;;
82182;SDS011;71763;52.220;13.000;2023-08-08T00:12:10;0.00;;;0.00;;
82182;SDS011;71763;52.220;13.000;2023-08-08T00:14:36;0.00;;;0.00;;
82182;SDS011;71763;52.220;13.000;2023-08-08T00:17:01;0.10;;;0.10;;
82182;SDS011;71763;52.220;13.000;2023-08-08T00:19:27;0.15;;;0.03;;
82182;SDS011;71763;52.220;13.000;2023-08-08T00:21:52;0.00;;;0.00;;
82182;SDS011;71763;52.220;13.000;2023-08-08T00:24:17;0.08;;;0.05;;
82182;SDS011;71763;52.220;13.000;2023-08-08T00:26:43;0.00;;;0.00;;
82182;SDS011;71763;52.220;13.000;2023-08-08T00:29:08;0.00;;;0.00;;
82182;SDS011;71763;52.220;13.000;2023-08-08T00:31:34;0.00;;;0.00;;
82182;SDS011;71763;52.220;13.000;2023-08-08T00:33:59;0.00;;;0.00;;
82182;SDS011;71763;52.220;13.000;2023-08-08T00:36:25;0.10;;;0.00;;
82182;SDS011;71763;52.220;13.000;2023-08-08T00:38:50;0.00;;;0.00;;
82182;SDS011;71763;52.220;13.000;2023-08-08T00:41:16;0.10;;;0.10;;
82182;SDS011;71763;52.220;13.000;2023-08-08T00:43:41;0.00;;;0.00;;
82182;SDS011;71763;52.220;13.000;2023-08-08T00:46:08;0.00;;;0.00;;
82182;SDS011;71763;52.220;13.000;2023-08-08T00:48:34;0.00;;;0.00;;
82182;SDS011;71763;52.220;13.000;2023-08-08T00:51:00;0.00;;;0.00;;
82182;SDS011;71763;52.220;13.000;2023-08-08T00:53:25;0.22;;;0.05;;
82182;SDS011;71763;52.220;13.000;2023-08-08T00:58:19;0.00;;;0.00;;
82182;SDS011;71763;52.220;13.000;2023-08-08T01:00:44;0.00;;;0.00;;
82182;SDS011;71763;52.220;13.000;2023-08-08T01:03:10;0.00;;;0.00;;
82182;SDS011;71763;52.220;13.000;2023-08-08T01:05:38;0.00;;;0.00;;
82182;SDS011;71763;52.220;13.000;2023-08-08T01:08:12;0.00;;;0.00;;
82182;SDS011;71763;52.220;13.000;2023-08-08T01:10:42;0.10;;;0.00;;
82182;SDS011;71763;52.220;13.000;2023-08-08T01:13:12;0.00;;;0.00;;
82182;SDS011;71763;52.220;13.000;2023-08-08T01:15:42;0.00;;;0.00;;
82182;SDS011;71763;52.220;13.000;2023-08-08T01:18:09;0.00;;;0.00;;
82182;SDS011;71763;52.220;13.000;2023-08-08T01:20:36;0.00;;;0.00;;
82182;SDS011;71763;52.220;13.000;2023-08-08T01:23:09;0.00;;;0.00;;
82182;SDS011;71763;52.220;13.000;2023-08-08T01:25:41;0.00;;;0.00;;
82182;SDS011;71763;52.220;13.000;2023-08-08T01:28:08;0.00;;;0.00;;
82182;SDS011;71763;52.220;13.000;2023-08-08T01:30:34;0.00;;;0.00;;
82182;SDS011;71763;52.220;13.000;2023-08-08T01:32:59;0.15;;;0.03;;
82182;SDS011;71763;52.220;13.000;2023-08-08T01:35:25;0.10;;;0.10;;
82182;SDS011;71763;52.220;13.000;2023-08-08T01:38:00;0.00;;;0.00;;
82182;SDS011;71763;52.220;13.000;2023-08-08T01:40:35;0.10;;;0.00;;
82182;SDS011;71763;52.220;13.000;2023-08-08T01:43:01;0.00;;;0.00;;
82182;SDS011;71763;52.220;13.000;2023-08-08T01:47:54;0.00;;;0.00;;
82182;SDS011;71763;52.220;13.000;2023-08-08T01:50:20;0.00;;;0.00;;
82182;SDS011;71763;52.220;13.000;2023-08-08T01:52:46;0.15;;;0.00;;
82182;SDS011;71763;52.220;13.000;2023-08-08T01:55:12;0.10;;;0.10;;
82182;SDS011;71763;52.220;13.000;2023-08-08T01:57:37;0.10;;;0.10;;
82182;SDS011;71763;52.220;13.000;2023-08-08T02:00:04;0.00;;;0.00;;
82182;SDS011;71763;52.220;13.000;2023-08-08T02:04:56;0.50;;;0.10;;
82182;SDS011;71763;52.220;13.000;2023-08-08T02:07:21;0.00;;;0.00;;
82182;SDS011;71763;52.220;13.000;2023-08-08T02:09:47;0.00;;;0.00;;
82182;SDS011;71763;52.220;13.000;2023-08-08T02:12:14;0.00;;;0.00;;
82182;SDS011;71763;52.220;13.000;2023-08-08T02:14:39;0.10;;;0.10;;
82182;SDS011;71763;52.220;13.000;2023-08-08T02:17:04;0.10;;;0.05;;
82182;SDS011;71763;52.220;13.000;2023-08-08T02:19:30;0.00;;;0.00;;
82182;SDS011;71763;52.220;13.000;2023-08-08T02:21:55;0.00;;;0.00;;
82182;SDS011;71763;52.220;13.000;2023-08-08T02:24:22;0.10;;;0.10;;
82182;SDS011;71763;52.220;13.000;2023-08-08T02:26:47;0.00;;;0.00;;
82182;SDS011;71763;52.220;13.000;2023-08-08T02:29:13;0.00;;;0.00;;
82182;SDS011;71763;52.220;13.000;2023-08-08T02:31:39;0.00;;;0.00;;
82182;SDS011;71763;52.220;13.000;2023-08-08T02:34:04;0.00;;;0.00;;
82182;SDS011;71763;52.220;13.000;2023-08-08T02:36:30;0.00;;;0.00;;
82182;SDS011;71763;52.220;13.000;2023-08-08T02:38:55;0.00;;;0.00;;
82182;SDS011;71763;52.220;13.000;2023-08-08T02:41:21;0.00;;;0.00;;
82182;SDS011;71763;52.220;13.000;2023-08-08T02:43:46;0.00;;;0.00;;
82182;SDS011;71763;52.220;13.000;2023-08-08T02:46:12;0.00;;;0.00;;
82182;SDS011;71763;52.220;13.000;2023-08-08T02:48:37;0.00;;;0.00;;
82182;SDS011;71763;52.220;13.000;2023-08-08T02:51:03;0.00;;;0.00;;
82182;SDS011;71763;52.220;13.000;2023-08-08T02:53:28;0.10;;;0.10;;
82182;SDS011;71763;52.220;13.000;2023-08-08T02:55:54;0.10;;;0.05;;
82182;SDS011;71763;52.220;13.000;2023-08-08T02:58:19;0.00;;;0.00;;
82182;SDS011;71763;52.220;13.000;2023-08-08T03:00:45;0.00;;;0.00;;
82182;SDS011;71763;52.220;13.000;2023-08-08T03:03:10;0.00;;;0.00;;
82182;SDS011;71763;52.220;13.000;2023-08-08T03:05:36;0.00;;;0.00;;
82182;SDS011;71763;52.220;13.000;2023-08-08T03:08:01;0.00;;;0.00;;
82182;SDS011;71763;52.220;13.000;2023-08-08T03:10:27;0.10;;;0.10;;
82182;SDS011;71763;52.220;13.000;2023-08-08T03:12:52;0.00;;;0.00;;
82182;SDS011;71763;52.220;13.000;2023-08-08T03:15:18;0.00;;;0.00;;
82182;SDS011;71763;52.220;13.000;2023-08-08T03:17:43;0.00;;;0.00;;
82182;SDS011;71763;52.220;13.000;2023-08-08T03:20:09;0.00;;;0.00;;
82182;SDS011;71763;52.220;13.000;2023-08-08T03:22:35;0.00;;;0.00;;
82182;SDS011;71763;52.220;13.000;2023-08-08T03:25:01;0.00;;;0.00;;
82182;SDS011;71763;52.220;13.000;2023-08-08T03:27:29;0.00;;;0.00;;
82182;SDS011;71763;52.220;13.000;2023-08-08T03:29:55;0.00;;;0.00;;
82182;SDS011;71763;52.220;13.000;2023-08-08T03:32:20;0.10;;;0.10;;
82182;SDS011;71763;52.220;13.000;2023-08-08T03:34:46;0.00;;;0.00;;
82182;SDS011;71763;52.220;13.000;2023-08-08T03:37:12;0.05;;;0.00;;
82182;SDS011;71763;52.220;13.000;2023-08-08T03:39:37;0.00;;;0.00;;
82182;SDS011;71763;52.220;13.000;2023-08-08T03:42:03;0.00;;;0.00;;
82182;SDS011;71763;52.220;13.000;2023-08-08T03:44:29;0.08;;;0.00;;
82182;SDS011;71763;52.220;13.000;2023-08-08T03:46:54;0.00;;;0.00;;
82182;SDS011;71763;52.220;13.000;2023-08-08T03:49:20;0.00;;;0.00;;
82182;SDS011;71763;52.220;13.000;2023-08-08T03:51:45;0.00;;;0.00;;
82182;SDS011;71763;52.220;13.000;2023-08-08T03:54:12;0.00;;;0.00;;
82182;SDS011;71763;52.220;13.000;2023-08-08T03:56:38;0.00;;;0.00;;
82182;SDS011;71763;52.220;13.000;2023-08-08T03:59:03;0.00;;;0.00;;
82182;SDS011;71763;52.220;13.000;2023-08-08T04:01:29;0.00;;;0.00;;
82182;SDS011;71763;52.220;13.000;2023-08-08T04:03:54;0.10;;;0.10;;
82182;SDS011;71763;52.220;13.000;2023-08-08T04:06:19;0.00;;;0.00;;
82182;SDS011;71763;52.220;13.000;2023-08-08T04:08:45;0.00;;;0.00;;
82182;SDS011;71763;52.220;13.000;2023-08-08T04:11:10;0.00;;;0.00;;
82182;SDS011;71763;52.220;13.000;2023-08-08T04:13:36;0.00;;;0.00;;
82182;SDS011;71763;52.220;13.000;2023-08-08T04:16:02;0.00;;;0.00;;
82182;SDS011;71763;52.220;13.000;2023-08-08T04:18:27;0.00;;;0.00;;
82182;SDS011;71763;52.220;13.000;2023-08-08T04:20:53;0.00;;;0.00;;
82182;SDS011;71763;52.220;13.000;2023-08-08T04:23:18;0.00;;;0.00;;
82182;SDS011;71763;52.220;13.000;2023-08-08T04:25:44;0.00;;;0.00;;
82182;SDS011;71763;52.220;13.000;2023-08-08T04:28:09;0.00;;;0.00;;
82182;SDS011;71763;52.220;13.000;2023-08-08T04:30:35;0.00;;;0.00;;
82182;SDS011;71763;52.220;13.000;2023-08-08T04:33:00;0.00;;;0.00;;
82182;SDS011;71763;52.220;13.000;2023-08-08T04:35:26;0.00;;;0.00;;
82182;SDS011;71763;52.220;13.000;2023-08-08T04:37:51;0.00;;;0.00;;
82182;SDS011;71763;52.220;13.000;2023-08-08T04:40:17;0.00;;;0.00;;
82182;SDS011;71763;52.220;13.000;2023-08-08T04:42:42;0.00;;;0.00;;
82182;SDS011;71763;52.220;13.000;2023-08-08T04:45:08;0.00;;;0.00;;
82182;SDS011;71763;52.220;13.000;2023-08-08T04:47:34;0.22;;;0.00;;
82182;SDS011;71763;52.220;13.000;2023-08-08T04:49:59;0.00;;;0.00;;
82182;SDS011;71763;52.220;13.000;2023-08-08T04:52:25;0.10;;;0.10;;
82182;SDS011;71763;52.220;13.000;2023-08-08T04:54:50;0.10;;;0.10;;
82182;SDS011;71763;52.220;13.000;2023-08-08T04:57:16;0.00;;;0.00;;
82182;SDS011;71763;52.220;13.000;2023-08-08T04:59:41;0.00;;;0.00;;
82182;SDS011;71763;52.220;13.000;2023-08-08T05:02:07;0.10;;;0.10;;
82182;SDS011;71763;52.220;13.000;2023-08-08T05:04:33;0.05;;;0.00;;
82182;SDS011;71763;52.220;13.000;2023-08-08T05:06:58;0.00;;;0.00;;
82182;SDS011;71763;52.220;13.000;2023-08-08T05:09:24;0.03;;;0.03;;
82182;SDS011;71763;52.220;13.000;2023-08-08T05:11:52;0.00;;;0.00;;
82182;SDS011;71763;52.220;13.000;2023-08-08T05:14:18;0.00;;;0.00;;
82182;SDS011;71763;52.220;13.000;2023-08-08T05:16:44;0.20;;;0.10;;
82182;SDS011;71763;52.220;13.000;2023-08-08T05:19:10;0.08;;;0.00;;
82182;SDS011;71763;52.220;13.000;2023-08-08T05:21:35;0.00;;;0.00;;
82182;SDS011;71763;52.220;13.000;2023-08-08T05:24:00;0.00;;;0.00;;
82182;SDS011;71763;52.220;13.000;2023-08-08T05:26:26;0.00;;;0.00;;
82182;SDS011;71763;52.220;13.000;2023-08-08T05:28:51;0.00;;;0.00;;
82182;SDS011;71763;52.220;13.000;2023-08-08T05:31:17;0.00;;;0.00;;
82182;SDS011;71763;52.220;13.000;2023-08-08T05:33:42;0.10;;;0.10;;
82182;SDS011;71763;52.220;13.000;2023-08-08T05:36:08;0.00;;;0.00;;
82182;SDS011;71763;52.220;13.000;2023-08-08T05:38:33;0.00;;;0.00;;
82182;SDS011;71763;52.220;13.000;2023-08-08T05:40:59;0.00;;;0.00;;
82182;SDS011;71763;52.220;13.000;2023-08-08T05:43:24;0.00;;;0.00;;
82182;SDS011;71763;52.220;13.000;2023-08-08T05:45:50;0.00;;;0.00;;
82182;SDS011;71763;52.220;13.000;2023-08-08T05:48:15;0.20;;;0.05;;
82182;SDS011;71763;52.220;13.000;2023-08-08T05:50:41;0.10;;;0.10;;
82182;SDS011;71763;52.220;13.000;2023-08-08T05:53:06;0.00;;;0.00;;
82182;SDS011;71763;52.220;13.000;2023-08-08T05:55:32;0.10;;;0.10;;
82182;SDS011;71763;52.220;13.000;2023-08-08T05:57:58;0.00;;;0.00;;
82182;SDS011;71763;52.220;13.000;2023-08-08T06:00:23;0.00;;;0.00;;
82182;SDS011;71763;52.220;13.000;2023-08-08T06:02:49;0.00;;;0.00;;
82182;SDS011;71763;52.220;13.000;2023-08-08T06:05:16;0.10;;;0.00;;
82182;SDS011;71763;52.220;13.000;2023-08-08T06:10:08;0.38;;;0.10;;
82182;SDS011;71763;52.220;13.000;2023-08-08T06:12:34;0.17;;;0.10;;
82182;SDS011;71763;52.220;13.000;2023-08-08T06:15:00;0.20;;;0.10;;
82182;SDS011;71763;52.220;13.000;2023-08-08T06:17:25;0.00;;;0.00;;
82182;SDS011;71763;52.220;13.000;2023-08-08T06:19:51;0.00;;;0.00;;
82182;SDS011;71763;52.220;13.000;2023-08-08T06:22:18;0.00;;;0.00;;
82182;SDS011;71763;52.220;13.000;2023-08-08T06:24:44;0.00;;;0.00;;
82182;SDS011;71763;52.220;13.000;2023-08-08T06:27:09;0.00;;;0.00;;
82182;SDS011;71763;52.220;13.000;2023-08-08T06:29:35;0.10;;;0.10;;
82182;SDS011;71763;52.220;13.000;2023-08-08T06:32:01;0.00;;;0.00;;
82182;SDS011;71763;52.220;13.000;2023-08-08T06:34:26;0.00;;;0.00;;
82182;SDS011;71763;52.220;13.000;2023-08-08T06:36:52;0.20;;;0.05;;
82182;SDS011;71763;52.220;13.000;2023-08-08T06:39:17;0.00;;;0.00;;
82182;SDS011;71763;52.220;13.000;2023-08-08T06:41:46;0.00;;;0.00;;
82182;SDS011;71763;52.220;13.000;2023-08-08T06:44:11;0.00;;;0.00;;
82182;SDS011;71763;52.220;13.000;2023-08-08T06:46:37;0.10;;;0.10;;
82182;SDS011;71763;52.220;13.000;2023-08-08T06:49:02;0.00;;;0.00;;
82182;SDS011;71763;52.220;13.000;2023-08-08T06:51:28;0.25;;;0.00;;
82182;SDS011;71763;52.220;13.000;2023-08-08T06:53:53;0.00;;;0.00;;
82182;SDS011;71763;52.220;13.000;2023-08-08T06:56:19;0.00;;;0.00;;
82182;SDS011;71763;52.220;13.000;2023-08-08T06:58:44;0.10;;;0.10;;
82182;SDS011;71763;52.220;13.000;2023-08-08T07:01:10;0.13;;;0.13;;
82182;SDS011;71763;52.220;13.000;2023-08-08T07:03:35;0.08;;;0.08;;
82182;SDS011;71763;52.220;13.000;2023-08-08T07:06:01;0.63;;;0.10;;
82182;SDS011;71763;52.220;13.000;2023-08-08T07:08:27;0.10;;;0.10;;
82182;SDS011;71763;52.220;13.000;2023-08-08T07:10:54;0.10;;;0.10;;
82182;SDS011;71763;52.220;13.000;2023-08-08T07:13:21;0.10;;;0.10;;
82182;SDS011;71763;52.220;13.000;2023-08-08T07:15:47;0.10;;;0.10;;
82182;SDS011;71763;52.220;13.000;2023-08-08T07:18:12;0.40;;;0.10;;
82182;SDS011;71763;52.220;13.000;2023-08-08T07:20:38;0.05;;;0.00;;
82182;SDS011;71763;52.220;13.000;2023-08-08T07:23:04;0.10;;;0.10;;
82182;SDS011;71763;52.220;13.000;2023-08-08T07:25:29;0.10;;;0.10;;
82182;SDS011;71763;52.220;13.000;2023-08-08T07:27:55;0.10;;;0.10;;
82182;SDS011;71763;52.220;13.000;2023-08-08T07:30:21;0.10;;;0.10;;
82182;SDS011;71763;52.220;13.000;2023-08-08T07:32:46;0.00;;;0.00;;
82182;SDS011;71763;52.220;13.000;2023-08-08T07:35:12;0.10;;;0.10;;
82182;SDS011;71763;52.220;13.000;2023-08-08T07:37:37;0.10;;;0.10;;
82182;SDS011;71763;52.220;13.000;2023-08-08T07:40:12;0.22;;;0.00;;
82182;SDS011;71763;52.220;13.000;2023-08-08T07:42:38;0.10;;;0.10;;
82182;SDS011;71763;52.220;13.000;2023-08-08T07:45:04;0.10;;;0.10;;
82182;SDS011;71763;52.220;13.000;2023-08-08T07:47:30;0.10;;;0.10;;
82182;SDS011;71763;52.220;13.000;2023-08-08T07:49:56;0.10;;;0.10;;
82182;SDS011;71763;52.220;13.000;2023-08-08T07:52:22;0.10;;;0.10;;
82182;SDS011;71763;52.220;13.000;2023-08-08T07:54:48;0.10;;;0.10;;
82182;SDS011;71763;52.220;13.000;2023-08-08T07:57:14;0.20;;;0.20;;
82182;SDS011;71763;52.220;13.000;2023-08-08T07:59:39;0.10;;;0.10;;
82182;SDS011;71763;52.220;13.000;2023-08-08T08:02:05;0.10;;;0.10;;
82182;SDS011;71763;52.220;13.000;2023-08-08T08:04:30;0.10;;;0.10;;
82182;SDS011;71763;52.220;13.000;2023-08-08T08:06:56;0.10;;;0.10;;
82182;SDS011;71763;52.220;13.000;2023-08-08T08:09:21;0.17;;;0.17;;
82182;SDS011;71763;52.220;13.000;2023-08-08T08:11:47;0.10;;;0.10;;
82182;SDS011;71763;52.220;13.000;2023-08-08T08:14:12;0.10;;;0.10;;
82182;SDS011;71763;52.220;13.000;2023-08-08T08:16:38;0.15;;;0.10;;
82182;SDS011;71763;52.220;13.000;2023-08-08T08:19:03;0.10;;;0.10;;
82182;SDS011;71763;52.220;13.000;2023-08-08T08:21:29;0.20;;;0.20;;
82182;SDS011;71763;52.220;13.000;2023-08-08T08:23:54;0.10;;;0.10;;
82182;SDS011;71763;52.220;13.000;2023-08-08T08:26:20;0.10;;;0.10;;
82182;SDS011;71763;52.220;13.000;2023-08-08T08:28:45;0.10;;;0.10;;
82182;SDS011;71763;52.220;13.000;2023-08-08T08:31:11;0.00;;;0.00;;
82182;SDS011;71763;52.220;13.000;2023-08-08T08:33:36;0.10;;;0.10;;
82182;SDS011;71763;52.220;13.000;2023-08-08T08:36:02;0.10;;;0.10;;
82182;SDS011;71763;52.220;13.000;2023-08-08T08:38:27;0.10;;;0.10;;
82182;SDS011;71763;52.220;13.000;2023-08-08T08:40:53;0.10;;;0.10;;
82182;SDS011;71763;52.220;13.000;2023-08-08T08:43:21;0.10;;;0.10;;
82182;SDS011;71763;52.220;13.000;2023-08-08T08:45:53;0.10;;;0.10;;
82182;SDS011;71763;52.220;13.000;2023-08-08T08:48:21;0.10;;;0.10;;
82182;SDS011;71763;52.220;13.000;2023-08-08T08:50:48;0.10;;;0.10;;
82182;SDS011;71763;52.220;13.000;2023-08-08T08:53:14;0.10;;;0.10;;
82182;SDS011;71763;52.220;13.000;2023-08-08T08:55:40;0.10;;;0.10;;
82182;SDS011;71763;52.220;13.000;2023-08-08T08:58:06;0.20;;;0.20;;
82182;SDS011;71763;52.220;13.000;2023-08-08T09:00:32;0.20;;;0.20;;
82182;SDS011;71763;52.220;13.000;2023-08-08T09:02:58;0.10;;;0.10;;
82182;SDS011;71763;52.220;13.000;2023-08-08T09:05:24;0.10;;;0.10;;
82182;SDS011;71763;52.220;13.000;2023-08-08T09:07:51;0.10;;;0.10;;
82182;SDS011;71763;52.220;13.000;2023-08-08T09:10:17;0.20;;;0.20;;
82182;SDS011;71763;52.220;13.000;2023-08-08T09:12:43;0.13;;;0.13;;
82182;SDS011;71763;52.220;13.000;2023-08-08T09:15:10;0.20;;;0.20;;
82182;SDS011;71763;52.220;13.000;2023-08-08T09:17:36;0.20;;;0.20;;
82182;SDS011;71763;52.220;13.000;2023-08-08T09:20:06;0.10;;;0.10;;
82182;SDS011;71763;52.220;13.000;2023-08-08T09:22:33;0.10;;;0.10;;
82182;SDS011;71763;52.220;13.000;2023-08-08T09:24:58;0.30;;;0.15;;
82182;SDS011;71763;52.220;13.000;2023-08-08T09:27:24;0.10;;;0.10;;
82182;SDS011;71763;52.220;13.000;2023-08-08T09:29:49;0.10;;;0.10;;
82182;SDS011;71763;52.220;13.000;2023-08-08T09:32:15;0.10;;;0.10;;
82182;SDS011;71763;52.220;13.000;2023-08-08T09:34:42;0.30;;;0.20;;
82182;SDS011;71763;52.220;13.000;2023-08-08T09:37:08;0.10;;;0.10;;
82182;SDS011;71763;52.220;13.000;2023-08-08T09:39:35;0.20;;;0.20;;
82182;SDS011;71763;52.220;13.000;2023-08-08T09:42:01;0.20;;;0.20;;
82182;SDS011;71763;52.220;13.000;2023-08-08T09:44:29;0.20;;;0.20;;
82182;SDS011;71763;52.220;13.000;2023-08-08T09:46:55;0.10;;;0.10;;
82182;SDS011;71763;52.220;13.000;2023-08-08T09:49:21;0.85;;;0.10;;
82182;SDS011;71763;52.220;13.000;2023-08-08T09:51:47;0.10;;;0.10;;
82182;SDS011;71763;52.220;13.000;2023-08-08T09:54:14;0.10;;;0.10;;
82182;SDS011;71763;52.220;13.000;2023-08-08T09:56:40;0.10;;;0.10;;
82182;SDS011;71763;52.220;13.000;2023-08-08T09:59:07;0.10;;;0.10;;
82182;SDS011;71763;52.220;13.000;2023-08-08T10:01:33;0.10;;;0.10;;
82182;SDS011;71763;52.220;13.000;2023-08-08T10:03:59;0.10;;;0.10;;
82182;SDS011;71763;52.220;13.000;2023-08-08T10:06:27;0.38;;;0.17;;
82182;SDS011;71763;52.220;13.000;2023-08-08T10:08:53;0.20;;;0.10;;
82182;SDS011;71763;52.220;13.000;2023-08-08T10:11:20;0.67;;;0.10;;
82182;SDS011;71763;52.220;13.000;2023-08-08T10:13:48;0.15;;;0.15;;
82182;SDS011;71763;52.220;13.000;2023-08-08T10:16:17;0.17;;;0.17;;
82182;SDS011;71763;52.220;13.000;2023-08-08T10:18:44;0.17;;;0.10;;
82182;SDS011;71763;52.220;13.000;2023-08-08T10:23:38;0.10;;;0.10;;
82182;SDS011;71763;52.220;13.000;2023-08-08T10:26:05;0.10;;;0.10;;
82182;SDS011;71763;52.220;13.000;2023-08-08T10:31:17;0.20;;;0.20;;
82182;SDS011;71763;52.220;13.000;2023-08-08T10:33:45;0.10;;;0.10;;
82182;SDS011;71763;52.220;13.000;2023-08-08T10:36:11;0.20;;;0.20;;
82182;SDS011;71763;52.220;13.000;2023-08-08T10:38:39;0.13;;;0.13;;
82182;SDS011;71763;52.220;13.000;2023-08-08T10:41:08;0.10;;;0.10;;
82182;SDS011;71763;52.220;13.000;2023-08-08T10:43:46;0.10;;;0.10;;
82182;SDS011;71763;52.220;13.000;2023-08-08T10:46:26;0.10;;;0.10;;
82182;SDS011;71763;52.220;13.000;2023-08-08T10:48:56;0.10;;;0.10;;
82182;SDS011;71763;52.220;13.000;2023-08-08T10:51:34;0.10;;;0.10;;
82182;SDS011;71763;52.220;13.000;2023-08-08T10:54:05;0.10;;;0.10;;
82182;SDS011;71763;52.220;13.000;2023-08-08T10:56:31;0.10;;;0.10;;
82182;SDS011;71763;52.220;13.000;2023-08-08T10:58:57;0.10;;;0.10;;
82182;SDS011;71763;52.220;13.000;2023-08-08T11:01:26;0.10;;;0.10;;
82182;SDS011;71763;52.220;13.000;2023-08-08T11:03:51;0.10;;;0.10;;
82182;SDS011;71763;52.220;13.000;2023-08-08T11:06:17;0.10;;;0.10;;
82182;SDS011;71763;52.220;13.000;2023-08-08T11:08:43;0.13;;;0.13;;
82182;SDS011;71763;52.220;13.000;2023-08-08T11:11:09;0.10;;;0.10;;
82182;SDS011;71763;52.220;13.000;2023-08-08T11:13:35;0.10;;;0.10;;
82182;SDS011;71763;52.220;13.000;2023-08-08T11:16:00;0.10;;;0.10;;
82182;SDS011;71763;52.220;13.000;2023-08-08T11:18:27;0.10;;;0.10;;
82182;SDS011;71763;52.220;13.000;2023-08-08T11:20:53;0.10;;;0.10;;
82182;SDS011;71763;52.220;13.000;2023-08-08T11:23:19;0.10;;;0.10;;
82182;SDS011;71763;52.220;13.000;2023-08-08T11:25:45;0.10;;;0.10;;
82182;SDS011;71763;52.220;13.000;2023-08-08T11:28:12;0.00;;;0.00;;
82182;SDS011;71763;52.220;13.000;2023-08-08T11:30:40;0.10;;;0.10;;
82182;SDS011;71763;52.220;13.000;2023-08-08T11:33:07;0.10;;;0.10;;
82182;SDS011;71763;52.220;13.000;2023-08-08T11:35:33;0.10;;;0.10;;
82182;SDS011;71763;52.220;13.000;2023-08-08T11:37:59;0.10;;;0.10;;
82182;SDS011;71763;52.220;13.000;2023-08-08T11:40:26;0.00;;;0.00;;
82182;SDS011;71763;52.220;13.000;2023-08-08T11:42:53;0.00;;;0.00;;
82182;SDS011;71763;52.220;13.000;2023-08-08T11:47:49;0.10;;;0.10;;
82182;SDS011;71763;52.220;13.000;2023-08-08T11:50:16;0.10;;;0.10;;
82182;SDS011;71763;52.220;13.000;2023-08-08T11:52:46;0.15;;;0.10;;
82182;SDS011;71763;52.220;13.000;2023-08-08T11:55:12;0.10;;;0.10;;
82182;SDS011;71763;52.220;13.000;2023-08-08T11:57:38;0.10;;;0.10;;
82182;SDS011;71763;52.220;13.000;2023-08-08T12:00:06;0.10;;;0.10;;
82182;SDS011;71763;52.220;13.000;2023-08-08T12:02:33;0.10;;;0.10;;
82182;SDS011;71763;52.220;13.000;2023-08-08T12:05:09;0.10;;;0.10;;
82182;SDS011;71763;52.220;13.000;2023-08-08T12:07:41;0.20;;;0.20;;
82182;SDS011;71763;52.220;13.000;2023-08-08T12:10:13;0.10;;;0.10;;
82182;SDS011;71763;52.220;13.000;2023-08-08T12:12:41;0.30;;;0.20;;
82182;SDS011;71763;52.220;13.000;2023-08-08T12:15:07;0.30;;;0.30;;
82182;SDS011;71763;52.220;13.000;2023-08-08T12:17:34;0.30;;;0.30;;
82182;SDS011;71763;52.220;13.000;2023-08-08T12:19:59;0.40;;;0.40;;
82182;SDS011;71763;52.220;13.000;2023-08-08T12:22:26;0.60;;;0.50;;
82182;SDS011;71763;52.220;13.000;2023-08-08T12:24:51;0.70;;;0.70;;
82182;SDS011;71763;52.220;13.000;2023-08-08T12:27:17;0.40;;;0.40;;
82182;SDS011;71763;52.220;13.000;2023-08-08T12:29:42;0.40;;;0.40;;
82182;SDS011;71763;52.220;13.000;2023-08-08T12:32:09;0.57;;;0.50;;
82182;SDS011;71763;52.220;13.000;2023-08-08T12:34:34;0.28;;;0.28;;
82182;SDS011;71763;52.220;13.000;2023-08-08T12:37:00;0.75;;;0.68;;
82182;SDS011;71763;52.220;13.000;2023-08-08T12:39:26;0.30;;;0.30;;
82182;SDS011;71763;52.220;13.000;2023-08-08T12:41:51;0.20;;;0.20;;
82182;SDS011;71763;52.220;13.000;2023-08-08T12:44:17;0.43;;;0.20;;
82182;SDS011;71763;52.220;13.000;2023-08-08T12:46:42;0.20;;;0.20;;
82182;SDS011;71763;52.220;13.000;2023-08-08T12:49:08;0.20;;;0.20;;
82182;SDS011;71763;52.220;13.000;2023-08-08T12:51:33;0.20;;;0.20;;
82182;SDS011;71763;52.220;13.000;2023-08-08T12:53:59;0.20;;;0.20;;
82182;SDS011;71763;52.220;13.000;2023-08-08T12:56:24;0.28;;;0.28;;
82182;SDS011;71763;52.220;13.000;2023-08-08T12:58:50;0.17;;;0.17;;
82182;SDS011;71763;52.220;13.000;2023-08-08T13:01:15;0.17;;;0.17;;
82182;SDS011;71763;52.220;13.000;2023-08-08T13:03:41;0.20;;;0.20;;
82182;SDS011;71763;52.220;13.000;2023-08-08T13:06:06;0.30;;;0.30;;
82182;SDS011;71763;52.220;13.000;2023-08-08T13:08:32;0.32;;;0.32;;
82182;SDS011;71763;52.220;13.000;2023-08-08T13:10:57;0.38;;;0.38;;
82182;SDS011;71763;52.220;13.000;2023-08-08T13:13:23;0.20;;;0.20;;
82182;SDS011;71763;52.220;13.000;2023-08-08T13:15:50;0.30;;;0.30;;
82182;SDS011;71763;52.220;13.000;2023-08-08T13:18:16;0.30;;;0.30;;
82182;SDS011;71763;52.220;13.000;2023-08-08T13:20:42;0.20;;;0.20;;
82182;SDS011;71763;52.220;13.000;2023-08-08T13:23:08;0.20;;;0.20;;
82182;SDS011;71763;52.220;13.000;2023-08-08T13:25:33;0.28;;;0.28;;
82182;SDS011;71763;52.220;13.000;2023-08-08T13:27:59;0.20;;;0.20;;
82182;SDS011;71763;52.220;13.000;2023-08-08T13:30:25;0.20;;;0.20;;
82182;SDS011;71763;52.220;13.000;2023-08-08T13:32:51;0.20;;;0.20;;
82182;SDS011;71763;52.220;13.000;2023-08-08T13:35:16;0.20;;;0.20;;
82182;SDS011;71763;52.220;13.000;2023-08-08T13:37:42;0.20;;;0.20;;
82182;SDS011;71763;52.220;13.000;2023-08-08T13:40:07;0.20;;;0.20;;
82182;SDS011;71763;52.220;13.000;2023-08-08T13:42:33;0.20;;;0.20;;
82182;SDS011;71763;52.220;13.000;2023-08-08T13:44:59;0.10;;;0.10;;
82182;SDS011;71763;52.220;13.000;2023-08-08T13:47:24;0.20;;;0.20;;
82182;SDS011;71763;52.220;13.000;2023-08-08T13:49:50;0.20;;;0.20;;
82182;SDS011;71763;52.220;13.000;2023-08-08T13:52:17;0.10;;;0.10;;
82182;SDS011;71763;52.220;13.000;2023-08-08T13:54:42;0.10;;;0.10;;
82182;SDS011;71763;52.220;13.000;2023-08-08T13:57:08;0.10;;;0.10;;
82182;SDS011;71763;52.220;13.000;2023-08-08T13:59:34;0.10;;;0.10;;
82182;SDS011;71763;52.220;13.000;2023-08-08T14:02:00;0.20;;;0.20;;
82182;SDS011;71763;52.220;13.000;2023-08-08T14:04:25;0.10;;;0.10;;
82182;SDS011;71763;52.220;13.000;2023-08-08T14:06:51;0.10;;;0.10;;
82182;SDS011;71763;52.220;13.000;2023-08-08T14:09:16;0.17;;;0.17;;
82182;SDS011;71763;52.220;13.000;2023-08-08T14:11:42;0.10;;;0.10;;
82182;SDS011;71763;52.220;13.000;2023-08-08T14:14:07;0.13;;;0.13;;
82182;SDS011;71763;52.220;13.000;2023-08-08T14:16:33;0.20;;;0.20;;
82182;SDS011;71763;52.220;13.000;2023-08-08T14:18:58;0.35;;;0.20;;
82182;SDS011;71763;52.220;13.000;2023-08-08T14:21:24;0.20;;;0.20;;
82182;SDS011;71763;52.220;13.000;2023-08-08T14:23:49;0.10;;;0.10;;
82182;SDS011;71763;52.220;13.000;2023-08-08T14:26:15;0.28;;;0.20;;
82182;SDS011;71763;52.220;13.000;2023-08-08T14:28:40;0.17;;;0.17;;
82182;SDS011;71763;52.220;13.000;2023-08-08T14:31:06;0.10;;;0.10;;
82182;SDS011;71763;52.220;13.000;2023-08-08T14:33:32;0.10;;;0.10;;
82182;SDS011;71763;52.220;13.000;2023-08-08T14:35:58;0.20;;;0.20;;
82182;SDS011;71763;52.220;13.000;2023-08-08T14:38:23;0.25;;;0.20;;
82182;SDS011;71763;52.220;13.000;2023-08-08T14:40:50;0.15;;;0.15;;
82182;SDS011;71763;52.220;13.000;2023-08-08T14:43:17;0.20;;;0.20;;